Time;durP1;ratioP1;P1;durP2;ratioP2;P2;SDS_P1;SDS_P2;PMS_P1;PMS_P2;Temp;Humidity;BMP_temperature;BMP_pressure;BME280_temperature;BME280_humidity;BME280_pressure;Samples;Min_cycle;Max_cycle;Signal;HPM_P1;HPM_P2
2022/03/09 00:02:20;;;;;;;;;;;4.80;72.80;;;;;;5073853;28;20444;-65
2022/03/09 00:04:46;;;;;;;;;;;4.80;73.20;;;;;;5073117;28;19908;-64
2022/03/09 00:07:11;;;;;;;;;;;4.80;73.30;;;;;;5073421;28;20018;-65
2022/03/09 00:09:37;;;;;;;;;;;4.60;73.60;;;;;;5074181;28;19952;-64
2022/03/09 00:12:03;;;;;;;;;;;4.80;73.50;;;;;;5072935;28;19913;-64
2022/03/09 00:14:29;;;;;;;;;;;4.80;73.40;;;;;;5073082;28;19919;-66
2022/03/09 00:16:54;;;;;;;;;;;4.90;73.40;;;;;;5073820;28;19908;-63
2022/03/09 00:19:20;;;;;;;;;;;4.90;73.60;;;;;;5078249;28;19956;-63
2022/03/09 00:21:45;;;;;;;;;;;4.80;74.20;;;;;;5076857;28;19909;-63
2022/03/09 00:24:11;;;;;;;;;;;4.70;73.90;;;;;;5077197;28;20310;-63
2022/03/09 00:26:36;;;;;;;;;;;4.70;73.90;;;;;;5076990;28;19913;-64
2022/03/09 00:29:02;;;;;;;;;;;4.50;74.40;;;;;;5076167;28;20376;-62
2022/03/09 00:31:28;;;;;;;;;;;4.50;74.70;;;;;;5076772;28;19912;-64
2022/03/09 00:33:53;;;;;;;;;;;4.40;74.80;;;;;;5058397;28;19962;-63
2022/03/09 00:36:19;;;;;;;;;;;4.50;74.90;;;;;;5076336;28;19915;-63
2022/03/09 00:38:44;;;;;;;;;;;4.60;74.70;;;;;;5076466;28;19962;-63
2022/03/09 00:41:10;;;;;;;;;;;4.60;74.70;;;;;;5076601;28;19908;-63
2022/03/09 00:43:36;;;;;;;;;;;4.50;74.80;;;;;;5058814;28;19974;-63
2022/03/09 00:46:02;;;;;;;;;;;4.50;75.10;;;;;;5075935;28;19913;-62
2022/03/09 00:48:28;;;;;;;;;;;4.50;75.10;;;;;;5058683;28;19958;-64
2022/03/09 00:50:53;;;;;;;;;;;4.30;75.60;;;;;;5076516;28;19959;-63
2022/03/09 00:53:19;;;;;;;;;;;4.40;75.80;;;;;;5077660;28;19992;-62
2022/03/09 00:55:44;;;;;;;;;;;4.60;82.40;;;;;;5077686;28;19927;-65
2022/03/09 00:58:10;;;;;;;;;;;4.60;86.30;;;;;;5077533;28;19945;-63
2022/03/09 01:00:35;;;;;;;;;;;4.40;85.10;;;;;;5077059;28;19908;-64
2022/03/09 01:03:01;;;;;;;;;;;4.30;83.50;;;;;;5075908;28;20590;-64
2022/03/09 01:05:26;;;;;;;;;;;4.10;81.20;;;;;;5076272;28;19908;-62
2022/03/09 01:07:52;;;;;;;;;;;4.20;82.50;;;;;;5075545;28;19955;-63
2022/03/09 01:10:17;;;;;;;;;;;4.20;77.00;;;;;;5076413;28;19909;-63
2022/03/09 01:12:43;;;;;;;;;;;4.20;76.60;;;;;;5057492;28;19912;-71
2022/03/09 01:15:08;;;;;;;;;;;4.10;77.10;;;;;;5075889;28;19916;-63
2022/03/09 01:17:34;;;;;;;;;;;3.90;77.30;;;;;;5076317;28;19909;-62
2022/03/09 01:20:00;;;;;;;;;;;3.90;77.70;;;;;;5057555;28;20276;-63
2022/03/09 01:22:25;;;;;;;;;;;3.90;77.70;;;;;;5057888;28;19912;-62
2022/03/09 01:24:51;;;;;;;;;;;3.90;78.20;;;;;;5075149;28;20011;-63
2022/03/09 01:27:16;;;;;;;;;;;3.80;78.30;;;;;;5058035;28;19955;-64
2022/03/09 01:29:42;;;;;;;;;;;3.80;78.50;;;;;;5075538;28;19996;-64
2022/03/09 01:32:07;;;;;;;;;;;3.90;78.30;;;;;;5075163;28;20066;-64
2022/03/09 01:34:33;;;;;;;;;;;3.90;78.40;;;;;;5075541;28;20392;-64
2022/03/09 01:36:58;;;;;;;;;;;3.90;78.40;;;;;;5057304;28;19915;-65
2022/03/09 01:39:24;;;;;;;;;;;3.90;78.50;;;;;;5075417;28;19915;-65
2022/03/09 01:41:49;;;;;;;;;;;3.60;79.40;;;;;;5074956;28;19908;-64
2022/03/09 01:44:17;;;;;;;;;;;3.50;79.90;;;;;;5075601;28;19909;-62
2022/03/09 01:46:43;;;;;;;;;;;3.60;79.50;;;;;;5057344;28;19986;-62
2022/03/09 01:49:09;;;;;;;;;;;3.50;80.20;;;;;;5075774;28;19980;-66
2022/03/09 01:51:37;;;;;;;;;;;3.40;80.20;;;;;;5076260;28;19913;-64
2022/03/09 01:54:04;;;;;;;;;;;3.50;80.10;;;;;;5075073;28;19917;-64
2022/03/09 01:56:29;;;;;;;;;;;3.70;79.60;;;;;;5057325;28;19913;-63
2022/03/09 01:58:55;;;;;;;;;;;3.70;79.10;;;;;;5074415;28;19931;-63
2022/03/09 02:01:20;;;;;;;;;;;3.50;79.90;;;;;;5057355;28;20042;-62
2022/03/09 02:03:46;;;;;;;;;;;3.50;80.10;;;;;;5074462;28;19909;-67
2022/03/09 02:06:12;;;;;;;;;;;3.30;80.50;;;;;;5057054;28;19912;-65
2022/03/09 02:11:22;;;;;;;;;;;3.30;81.30;;;;;;5074983;28;19920;-63
2022/03/09 02:13:47;;;;;;;;;;;3.30;81.10;;;;;;5074222;28;19913;-63
2022/03/09 02:16:13;;;;;;;;;;;3.20;81.30;;;;;;5057076;28;19915;-65
2022/03/09 02:18:39;;;;;;;;;;;3.30;81.70;;;;;;5074938;28;19909;-62
2022/03/09 02:21:07;;;;;;;;;;;3.40;83.60;;;;;;5074321;28;19915;-65
2022/03/09 02:23:32;;;;;;;;;;;3.10;83.20;;;;;;5075494;28;19916;-63
2022/03/09 02:25:58;;;;;;;;;;;3.30;86.00;;;;;;5074345;28;19931;-64
2022/03/09 02:28:23;;;;;;;;;;;3.20;82.90;;;;;;5075348;28;20337;-66
2022/03/09 02:30:53;;;;;;;;;;;3.10;82.50;;;;;;5074888;28;19908;-64
2022/03/09 02:33:19;;;;;;;;;;;3.10;84.20;;;;;;5074681;28;20404;-62
2022/03/09 02:35:44;;;;;;;;;;;3.00;84.70;;;;;;5075477;28;19908;-65
2022/03/09 02:38:10;;;;;;;;;;;3.00;83.90;;;;;;5056599;28;19908;-66
2022/03/09 02:40:35;;;;;;;;;;;2.80;84.60;;;;;;5056617;28;19909;-63
2022/03/09 02:43:01;;;;;;;;;;;2.70;85.30;;;;;;5056744;28;19935;-65
2022/03/09 02:45:27;;;;;;;;;;;2.70;85.50;;;;;;5057411;28;19908;-64
2022/03/09 02:47:52;;;;;;;;;;;2.80;85.50;;;;;;5056855;28;19962;-65
2022/03/09 02:50:18;;;;;;;;;;;2.70;85.80;;;;;;5074812;28;19996;-63
2022/03/09 02:52:44;;;;;;;;;;;2.70;85.90;;;;;;5074535;28;19920;-63
2022/03/09 02:55:10;;;;;;;;;;;2.80;85.80;;;;;;5074269;28;20334;-64
2022/03/09 02:57:36;;;;;;;;;;;2.90;85.60;;;;;;5074756;28;19912;-64
2022/03/09 03:00:03;;;;;;;;;;;3.00;85.10;;;;;;5083939;28;20415;-64
2022/03/09 03:02:29;;;;;;;;;;;2.90;85.60;;;;;;5074040;28;19908;-64
2022/03/09 03:04:54;;;;;;;;;;;2.90;85.60;;;;;;5055288;28;20361;-62
2022/03/09 03:07:20;;;;;;;;;;;2.90;85.80;;;;;;5074247;28;19908;-64
2022/03/09 03:09:46;;;;;;;;;;;2.90;86.00;;;;;;5074153;28;20353;-68
2022/03/09 03:12:11;;;;;;;;;;;2.90;86.50;;;;;;5055355;28;20322;-69
2022/03/09 03:14:37;;;;;;;;;;;2.60;87.40;;;;;;5055551;28;20379;-63
2022/03/09 03:17:03;;;;;;;;;;;2.70;87.40;;;;;;5055269;28;19908;-63
2022/03/09 03:19:29;;;;;;;;;;;2.70;87.40;;;;;;5073396;28;19975;-63
2022/03/09 03:21:58;;;;;;;;;;;2.80;87.60;;;;;;5055202;28;19909;-67
2022/03/09 03:24:24;;;;;;;;;;;2.70;87.70;;;;;;5055163;28;19924;-63
2022/03/09 03:26:51;;;;;;;;;;;2.70;87.90;;;;;;5055731;28;20015;-75
2022/03/09 03:29:17;;;;;;;;;;;2.70;87.60;;;;;;5073135;28;19930;-67
2022/03/09 03:31:43;;;;;;;;;;;2.70;88.20;;;;;;5073231;28;20436;-65
2022/03/09 03:34:09;;;;;;;;;;;2.50;89.00;;;;;;5073197;28;19916;-64
2022/03/09 03:36:35;;;;;;;;;;;2.50;89.30;;;;;;5055600;28;20365;-65
2022/03/09 03:39:02;;;;;;;;;;;2.50;89.40;;;;;;5054981;28;19909;-63
2022/03/09 03:41:28;;;;;;;;;;;2.60;89.10;;;;;;5073843;28;20411;-65
2022/03/09 03:43:56;;;;;;;;;;;2.60;89.50;;;;;;5072819;28;19919;-65
2022/03/09 03:46:22;;;;;;;;;;;2.70;89.10;;;;;;5056322;28;19915;-64
2022/03/09 03:48:48;;;;;;;;;;;2.50;89.40;;;;;;5075563;28;19909;-64
2022/03/09 03:51:15;;;;;;;;;;;2.60;89.70;;;;;;5073321;28;19938;-63
2022/03/09 03:53:41;;;;;;;;;;;2.40;89.90;;;;;;5072467;28;19938;-69
2022/03/09 03:56:07;;;;;;;;;;;2.40;90.30;;;;;;5054704;28;20363;-64
2022/03/09 03:58:35;;;;;;;;;;;2.50;90.20;;;;;;5073730;28;19916;-64
2022/03/09 04:01:04;;;;;;;;;;;2.50;90.20;;;;;;5088478;28;20331;-63
2022/03/09 04:03:32;;;;;;;;;;;2.50;90.20;;;;;;5076372;28;19908;-63
2022/03/09 04:06:02;;;;;;;;;;;2.40;90.20;;;;;;5093715;28;19908;-63
2022/03/09 04:08:28;;;;;;;;;;;2.40;90.50;;;;;;5095047;28;19912;-64
2022/03/09 04:10:55;;;;;;;;;;;2.50;90.30;;;;;;5094243;28;19916;-66
2022/03/09 04:13:21;;;;;;;;;;;2.50;90.30;;;;;;5094114;28;19912;-63
2022/03/09 04:15:47;;;;;;;;;;;2.60;90.20;;;;;;5076118;28;19915;-66
2022/03/09 04:18:14;;;;;;;;;;;2.50;90.20;;;;;;5075482;28;20323;-62
2022/03/09 04:20:39;;;;;;;;;;;2.50;90.40;;;;;;5093925;28;19916;-63
2022/03/09 04:23:08;;;;;;;;;;;2.40;90.60;;;;;;5092945;28;19916;-63
2022/03/09 04:25:36;;;;;;;;;;;2.40;90.70;;;;;;5071674;28;19973;-67
2022/03/09 04:28:02;;;;;;;;;;;2.40;90.70;;;;;;5071107;28;20403;-64
2022/03/09 04:30:32;;;;;;;;;;;2.40;91.00;;;;;;5062700;28;19909;-63
2022/03/09 04:33:00;;;;;;;;;;;2.40;91.10;;;;;;5050480;28;20021;-67
2022/03/09 04:35:26;;;;;;;;;;;2.40;90.90;;;;;;5052709;28;20299;-63
2022/03/09 04:37:53;;;;;;;;;;;2.40;91.20;;;;;;5052754;28;19996;-63
2022/03/09 04:40:19;;;;;;;;;;;2.30;91.30;;;;;;5052148;28;19908;-63
2022/03/09 04:42:45;;;;;;;;;;;2.30;91.30;;;;;;5069975;28;19991;-64
2022/03/09 04:45:11;;;;;;;;;;;2.40;91.40;;;;;;5070642;28;20011;-65
2022/03/09 04:47:37;;;;;;;;;;;2.40;91.50;;;;;;5073165;28;19956;-67
2022/03/09 04:50:03;;;;;;;;;;;2.40;91.50;;;;;;5071404;28;19918;-65
2022/03/09 04:52:29;;;;;;;;;;;2.30;91.70;;;;;;5072087;28;19927;-64
2022/03/09 04:54:56;;;;;;;;;;;2.20;91.80;;;;;;5072015;28;19966;-73
2022/03/09 04:57:22;;;;;;;;;;;2.20;91.80;;;;;;5073470;28;19908;-64
2022/03/09 04:59:49;;;;;;;;;;;2.30;91.70;;;;;;5068332;28;20670;-65
2022/03/09 05:02:14;;;;;;;;;;;2.30;91.60;;;;;;5052627;28;19931;-63
2022/03/09 05:04:40;;;;;;;;;;;2.30;91.60;;;;;;5054837;28;19909;-66
2022/03/09 05:07:06;;;;;;;;;;;2.20;91.70;;;;;;5055806;28;19956;-64
2022/03/09 05:09:32;;;;;;;;;;;2.20;91.90;;;;;;5057669;28;19908;-67
2022/03/09 05:11:57;;;;;;;;;;;2.20;91.70;;;;;;5056055;28;20323;-67
2022/03/09 05:14:25;;;;;;;;;;;2.30;91.70;;;;;;5057727;28;19912;-69
2022/03/09 05:16:52;;;;;;;;;;;2.20;92.20;;;;;;5054790;28;20396;-65
2022/03/09 05:19:19;;;;;;;;;;;2.20;91.90;;;;;;5054185;28;19913;-65
2022/03/09 05:21:45;;;;;;;;;;;2.20;92.00;;;;;;5056086;28;19909;-64
2022/03/09 05:24:11;;;;;;;;;;;2.10;92.10;;;;;;5054171;28;19927;-63
2022/03/09 05:26:38;;;;;;;;;;;2.10;92.10;;;;;;5054709;28;19913;-65
2022/03/09 05:29:04;;;;;;;;;;;2.10;92.20;;;;;;5054073;28;19909;-63
2022/03/09 05:31:31;;;;;;;;;;;2.00;92.20;;;;;;5071290;28;19913;-64
2022/03/09 05:33:56;;;;;;;;;;;2.10;92.10;;;;;;5075123;28;19916;-65
2022/03/09 05:36:22;;;;;;;;;;;2.10;92.10;;;;;;5074837;28;19919;-63
2022/03/09 05:38:48;;;;;;;;;;;2.00;92.30;;;;;;5075282;28;19909;-65
2022/03/09 05:41:15;;;;;;;;;;;2.10;92.10;;;;;;5075135;28;19915;-63
2022/03/09 05:43:41;;;;;;;;;;;2.10;92.20;;;;;;5076682;28;20003;-63
2022/03/09 05:46:10;;;;;;;;;;;2.00;92.40;;;;;;5074676;28;20378;-65
2022/03/09 05:48:37;;;;;;;;;;;2.10;92.30;;;;;;5076300;28;20308;-66
2022/03/09 05:51:04;;;;;;;;;;;2.10;92.50;;;;;;5076004;28;19912;-65
2022/03/09 05:53:30;;;;;;;;;;;2.00;92.60;;;;;;5075148;28;20362;-64
2022/03/09 05:55:56;;;;;;;;;;;2.10;92.60;;;;;;5076065;28;19919;-66
2022/03/09 05:58:22;;;;;;;;;;;2.00;92.60;;;;;;5057326;28;19912;-69
2022/03/09 06:00:50;;;;;;;;;;;2.10;92.60;;;;;;5074862;28;19955;-64
2022/03/09 06:03:20;;;;;;;;;;;2.10;92.60;;;;;;5071282;28;20232;-67
2022/03/09 06:05:46;;;;;;;;;;;2.20;92.40;;;;;;5070476;28;19912;-65
2022/03/09 06:08:14;;;;;;;;;;;2.20;92.40;;;;;;5069327;28;19987;-66
2022/03/09 06:10:42;;;;;;;;;;;2.20;92.30;;;;;;5076477;28;20015;-65
2022/03/09 06:13:17;;;;;;;;;;;2.10;92.50;;;;;;5055437;28;20003;-66
2022/03/09 06:15:48;;;;;;;;;;;2.20;92.60;;;;;;5067931;28;19917;-65
2022/03/09 06:18:18;;;;;;;;;;;2.20;92.50;;;;;;5055793;28;19916;-65
2022/03/09 06:20:47;;;;;;;;;;;3.30;99.90;;;;;;5060006;28;19908;-66
2022/03/09 06:23:12;;;;;;;;;;;3.00;95.90;;;;;;5073594;28;20392;-64
2022/03/09 06:25:40;;;;;;;;;;;2.70;94.20;;;;;;5077790;28;19925;-65
2022/03/09 06:28:34;;;;;;;;;;;2.50;94.30;;;;;;5074753;28;19963;-65
2022/03/09 06:31:04;;;;;;;;;;;2.50;94.20;;;;;;5065504;28;19919;-64
2022/03/09 06:33:30;;;;;;;;;;;2.40;94.30;;;;;;5069246;28;20009;-65
2022/03/09 06:35:57;;;;;;;;;;;2.40;94.40;;;;;;5077506;28;20367;-64
2022/03/09 06:38:29;;;;;;;;;;;2.60;93.90;;;;;;5073266;28;19920;-65
2022/03/09 06:40:57;;;;;;;;;;;2.50;93.60;;;;;;5087423;28;19908;-69
2022/03/09 06:43:23;;;;;;;;;;;2.50;93.80;;;;;;5065400;28;19924;-64
2022/03/09 06:45:51;;;;;;;;;;;2.60;93.70;;;;;;5074954;28;19962;-65
2022/03/09 06:48:18;;;;;;;;;;;2.70;93.70;;;;;;5075060;28;19948;-66
2022/03/09 06:50:44;;;;;;;;;;;2.80;93.40;;;;;;5077078;28;19995;-66
2022/03/09 06:53:11;;;;;;;;;;;2.90;93.90;;;;;;5087887;28;19916;-63
2022/03/09 06:55:37;;;;;;;;;;;3.10;93.60;;;;;;5094822;28;19919;-66
2022/03/09 06:58:06;;;;;;;;;;;3.40;92.80;;;;;;5094801;28;20413;-64
2022/03/09 07:00:45;;;;;;;;;;;3.50;91.80;;;;;;5091329;28;19999;-64
2022/03/09 07:03:20;;;;;;;;;;;3.90;91.00;;;;;;5073310;28;20007;-64
2022/03/09 07:06:10;;;;;;;;;;;4.30;90.20;;;;;;5055858;28;19908;-66
2022/03/09 07:08:40;;;;;;;;;;;4.50;88.90;;;;;;5056049;28;20007;-63
2022/03/09 07:11:07;;;;;;;;;;;5.10;86.90;;;;;;5073249;28;20373;-64
2022/03/09 07:13:34;;;;;;;;;;;5.30;85.40;;;;;;5073353;28;19965;-69
2022/03/09 07:16:05;;;;;;;;;;;5.70;84.00;;;;;;5073974;28;20405;-65
2022/03/09 07:18:37;;;;;;;;;;;5.80;83.80;;;;;;5055941;28;20405;-65
2022/03/09 07:21:08;;;;;;;;;;;6.10;82.40;;;;;;5073680;28;20387;-66
2022/03/09 07:23:36;;;;;;;;;;;6.50;80.30;;;;;;5056291;28;20377;-67
2022/03/09 07:26:09;;;;;;;;;;;6.70;78.50;;;;;;5055084;28;19929;-65
2022/03/09 07:28:41;;;;;;;;;;;6.10;77.90;;;;;;5054657;28;20376;-67
2022/03/09 07:31:11;;;;;;;;;;;6.20;77.90;;;;;;5053461;28;19913;-72
2022/03/09 07:33:40;;;;;;;;;;;6.60;76.60;;;;;;5066661;28;19920;-69
2022/03/09 07:36:09;;;;;;;;;;;6.90;76.00;;;;;;5042983;28;19909;-68
2022/03/09 07:38:38;;;;;;;;;;;6.70;74.80;;;;;;5054056;28;19924;-63
2022/03/09 07:41:09;;;;;;;;;;;7.20;75.00;;;;;;5053652;28;19963;-66
2022/03/09 07:43:47;;;;;;;;;;;7.50;73.20;;;;;;5035322;28;19962;-64
2022/03/09 07:46:12;;;;;;;;;;;7.40;74.40;;;;;;5043336;28;19921;-65
2022/03/09 07:48:38;;;;;;;;;;;6.90;76.80;;;;;;5066944;28;19909;-64
2022/03/09 07:51:05;;;;;;;;;;;7.10;75.70;;;;;;5067631;28;20282;-66
2022/03/09 07:53:32;;;;;;;;;;;7.60;76.10;;;;;;5065977;28;19952;-64
2022/03/09 07:55:58;;;;;;;;;;;8.10;75.70;;;;;;5074163;28;19947;-66
2022/03/09 07:58:29;;;;;;;;;;;8.20;72.40;;;;;;5074537;28;20250;-65
2022/03/09 08:00:55;;;;;;;;;;;9.00;75.10;;;;;;5076407;28;19916;-66
2022/03/09 08:03:26;;;;;;;;;;;8.40;70.40;;;;;;5055558;28;20424;-64
2022/03/09 08:05:55;;;;;;;;;;;8.80;70.50;;;;;;5056013;28;19919;-66
2022/03/09 08:08:28;;;;;;;;;;;8.20;70.60;;;;;;5072744;28;20384;-65
2022/03/09 08:10:58;;;;;;;;;;;8.20;70.30;;;;;;5073006;28;19913;-65
2022/03/09 08:13:26;;;;;;;;;;;8.50;69.60;;;;;;5071098;28;19917;-63
2022/03/09 08:15:52;;;;;;;;;;;8.30;69.80;;;;;;5072890;28;20019;-64
2022/03/09 08:18:19;;;;;;;;;;;8.90;69.20;;;;;;5072342;28;19921;-70
2022/03/09 08:20:50;;;;;;;;;;;9.40;67.10;;;;;;5055308;28;20041;-63
2022/03/09 08:23:23;;;;;;;;;;;9.30;74.20;;;;;;5070910;28;19913;-65
2022/03/09 08:25:53;;;;;;;;;;;;;;;;;;5048913;28;19932;-65
2022/03/09 08:28:21;;;;;;;;;;;9.60;66.00;;;;;;5055672;28;19913;-64
2022/03/09 08:30:47;;;;;;;;;;;9.80;66.70;;;;;;5055004;28;19978;-66
2022/03/09 08:33:14;;;;;;;;;;;9.90;66.10;;;;;;5069654;28;20023;-66
2022/03/09 08:35:42;;;;;;;;;;;10.50;65.70;;;;;;5053001;28;20265;-63
2022/03/09 08:38:09;;;;;;;;;;;10.70;63.50;;;;;;5065572;28;19912;-63
2022/03/09 08:40:35;;;;;;;;;;;10.80;66.30;;;;;;5075791;28;20081;-68
2022/03/09 08:43:00;;;;;;;;;;;11.60;65.50;;;;;;5074937;28;19940;-69
2022/03/09 08:45:27;;;;;;;;;;;11.80;64.00;;;;;;5073868;28;19913;-66
2022/03/09 08:47:53;;;;;;;;;;;11.60;70.10;;;;;;5064691;28;19917;-66
2022/03/09 08:50:19;;;;;;;;;;;11.70;68.20;;;;;;5076212;28;19911;-65
2022/03/09 08:52:45;;;;;;;;;;;;;;;;;;5075329;28;19920;-63
2022/03/09 08:55:11;;;;;;;;;;;12.50;61.00;;;;;;5064979;28;19963;-66
2022/03/09 08:57:36;;;;;;;;;;;12.80;59.90;;;;;;5053410;28;20227;-65
2022/03/09 09:00:05;;;;;;;;;;;12.50;58.90;;;;;;5055844;28;20354;-65
2022/03/09 09:02:30;;;;;;;;;;;12.30;60.00;;;;;;5054352;28;20243;-69
2022/03/09 09:04:57;;;;;;;;;;;11.30;60.00;;;;;;5058416;28;19948;-66
2022/03/09 09:07:23;;;;;;;;;;;11.10;61.00;;;;;;5055296;28;20307;-65
2022/03/09 09:09:49;;;;;;;;;;;11.90;60.10;;;;;;5054633;28;19915;-66
2022/03/09 09:12:15;;;;;;;;;;;11.90;60.70;;;;;;5070473;28;19912;-63
2022/03/09 09:14:41;;;;;;;;;;;12.40;59.70;;;;;;5073307;28;19923;-63
2022/03/09 09:17:07;;;;;;;;;;;12.70;59.60;;;;;;5072292;28;19912;-65
2022/03/09 09:19:34;;;;;;;;;;;12.80;58.40;;;;;;5058329;28;19966;-66
2022/03/09 09:22:01;;;;;;;;;;;12.20;59.10;;;;;;5070226;28;19947;-64
2022/03/09 09:24:27;;;;;;;;;;;11.80;59.50;;;;;;5062828;28;20462;-64
2022/03/09 09:26:53;;;;;;;;;;;11.90;60.20;;;;;;5075582;28;20007;-66
2022/03/09 09:29:19;;;;;;;;;;;12.70;58.60;;;;;;5056997;28;19944;-65
2022/03/09 09:31:47;;;;;;;;;;;12.20;59.30;;;;;;5075605;28;19959;-65
2022/03/09 09:34:14;;;;;;;;;;;12.50;58.90;;;;;;5075477;28;19927;-66
2022/03/09 09:36:43;;;;;;;;;;;12.90;58.20;;;;;;5057615;28;19912;-64
2022/03/09 09:39:10;;;;;;;;;;;13.40;57.60;;;;;;5057121;28;19969;-64
2022/03/09 09:41:36;;;;;;;;;;;13.60;57.00;;;;;;5055616;28;19916;-63
2022/03/09 09:44:03;;;;;;;;;;;14.60;56.70;;;;;;5074643;28;19916;-66
2022/03/09 09:46:29;;;;;;;;;;;14.80;56.00;;;;;;5046432;28;19936;-67
2022/03/09 09:48:57;;;;;;;;;;;15.40;55.40;;;;;;5048912;28;20350;-65
2022/03/09 09:51:23;;;;;;;;;;;15.90;54.40;;;;;;5071557;28;20206;-64
2022/03/09 09:53:49;;;;;;;;;;;16.00;53.90;;;;;;5071492;28;19917;-65
2022/03/09 09:56:15;;;;;;;;;;;16.30;54.10;;;;;;5035278;28;19920;-67
2022/03/09 09:58:48;;;;;;;;;;;16.50;53.40;;;;;;5068599;28;20350;-65
2022/03/09 10:01:15;;;;;;;;;;;16.30;52.90;;;;;;5050946;28;20043;-71
2022/03/09 10:03:40;;;;;;;;;;;16.80;53.80;;;;;;5067607;28;20286;-67
2022/03/09 10:06:06;;;;;;;;;;;15.80;53.70;;;;;;5049521;28;19909;-63
2022/03/09 10:08:39;;;;;;;;;;;16.70;53.80;;;;;;5064162;28;19908;-66
2022/03/09 10:11:06;;;;;;;;;;;16.90;52.80;;;;;;5061369;28;19920;-65
2022/03/09 10:13:35;;;;;;;;;;;16.60;52.20;;;;;;5057355;28;19912;-70
2022/03/09 10:16:20;;;;;;;;;;;16.40;52.40;;;;;;5037613;28;19956;-65
2022/03/09 10:18:53;;;;;;;;;;;16.40;52.90;;;;;;5068758;28;19913;-64
2022/03/09 10:21:20;;;;;;;;;;;17.20;52.00;;;;;;5041244;28;20285;-67
2022/03/09 10:23:51;;;;;;;;;;;17.50;51.10;;;;;;5053332;28;19917;-63
2022/03/09 10:26:17;;;;;;;;;;;16.80;50.60;;;;;;5072135;28;19920;-64
2022/03/09 10:29:19;;;;;;;;;;;16.80;52.20;;;;;;5055276;28;19919;-66
2022/03/09 10:31:46;;;;;;;;;;;17.40;51.90;;;;;;4995856;28;20008;-65
2022/03/09 10:34:14;;;;;;;;;;;17.60;51.70;;;;;;5060902;28;19912;-65
2022/03/09 10:36:56;;;;;;;;;;;18.00;51.60;;;;;;5073467;28;19962;-65
2022/03/09 10:39:23;;;;;;;;;;;18.20;51.60;;;;;;5054665;28;19916;-63
2022/03/09 10:41:49;;;;;;;;;;;16.50;51.20;;;;;;5081472;28;19955;-64
2022/03/09 10:44:14;;;;;;;;;;;16.80;52.10;;;;;;5092551;28;19955;-66
2022/03/09 10:46:42;;;;;;;;;;;17.00;51.30;;;;;;5092262;28;19908;-65
2022/03/09 10:49:08;;;;;;;;;;;17.40;49.80;;;;;;5074405;28;19908;-65
2022/03/09 10:51:34;;;;;;;;;;;17.10;50.60;;;;;;5091880;28;20335;-65
2022/03/09 10:54:03;;;;;;;;;;;16.20;51.20;;;;;;5092759;28;19916;-64
2022/03/09 10:56:29;;;;;;;;;;;16.50;51.80;;;;;;5091904;28;20058;-64
2022/03/09 10:58:54;;;;;;;;;;;17.30;51.00;;;;;;5092561;28;19970;-65
2022/03/09 11:01:20;;;;;;;;;;;17.60;50.20;;;;;;5091139;28;19908;-66
2022/03/09 11:03:46;;;;;;;;;;;16.20;50.80;;;;;;5073697;28;19953;-66
2022/03/09 11:06:12;;;;;;;;;;;16.00;51.30;;;;;;5092509;28;19916;-66
2022/03/09 11:08:39;;;;;;;;;;;17.60;51.30;;;;;;5073233;28;20004;-67
2022/03/09 11:11:05;;;;;;;;;;;18.70;50.00;;;;;;5092056;28;19958;-64
2022/03/09 11:13:32;;;;;;;;;;;19.20;49.20;;;;;;5073419;28;19916;-67
2022/03/09 11:15:58;;;;;;;;;;;19.80;49.20;;;;;;5092385;28;19916;-66
2022/03/09 11:18:28;;;;;;;;;;;20.20;48.10;;;;;;5091296;28;20057;-67
2022/03/09 11:21:01;;;;;;;;;;;18.30;47.60;;;;;;5073726;28;20277;-66
2022/03/09 11:23:31;;;;;;;;;;;17.70;49.00;;;;;;5072761;28;19919;-67
2022/03/09 11:26:03;;;;;;;;;;;17.40;48.80;;;;;;5092274;28;19938;-65
2022/03/09 11:28:30;;;;;;;;;;;17.20;49.60;;;;;;5073032;28;19955;-66
2022/03/09 11:31:07;;;;;;;;;;;18.60;49.30;;;;;;5091948;28;19909;-67
2022/03/09 11:33:41;;;;;;;;;;;19.50;48.10;;;;;;5090709;28;19912;-66
2022/03/09 11:36:22;;;;;;;;;;;19.70;47.50;;;;;;5091359;28;19915;-66
2022/03/09 11:38:48;;;;;;;;;;;20.40;46.70;;;;;;5091706;28;19908;-65
2022/03/09 11:41:14;;;;;;;;;;;18.80;46.70;;;;;;5090926;28;20349;-67
2022/03/09 11:43:40;;;;;;;;;;;18.10;48.40;;;;;;5091021;28;20057;-65
2022/03/09 11:46:06;;;;;;;;;;;19.10;48.10;;;;;;5091078;28;20012;-65
2022/03/09 11:48:50;;;;;;;;;;;19.70;47.30;;;;;;5091218;28;20364;-66
2022/03/09 11:51:15;;;;;;;;;;;19.20;46.40;;;;;;5073058;28;20348;-66
2022/03/09 11:53:46;;;;;;;;;;;18.90;47.00;;;;;;5072446;28;20480;-65
2022/03/09 11:56:26;;;;;;;;;;;19.00;46.50;;;;;;5073319;28;19923;-65
2022/03/09 11:59:10;;;;;;;;;;;19.80;46.20;;;;;;5091266;28;19915;-66
2022/03/09 12:01:54;;;;;;;;;;;20.00;45.90;;;;;;5090952;28;20412;-66
2022/03/09 12:04:46;;;;;;;;;;;19.60;45.40;;;;;;5072571;28;20380;-65
2022/03/09 12:07:13;;;;;;;;;;;20.40;45.30;;;;;;5086040;28;20002;-64
2022/03/09 12:09:55;;;;;;;;;;;20.20;45.10;;;;;;5090740;28;19908;-66
2022/03/09 12:12:21;;;;;;;;;;;20.90;44.70;;;;;;5072828;28;20010;-66
2022/03/09 12:15:05;;;;;;;;;;;22.00;44.50;;;;;;5094330;28;20330;-65
2022/03/09 12:17:39;;;;;;;;;;;21.90;43.80;;;;;;5094612;28;20011;-65
2022/03/09 12:20:18;;;;;;;;;;;20.10;43.80;;;;;;5076904;28;19908;-66
2022/03/09 12:22:55;;;;;;;;;;;18.60;45.40;;;;;;5094134;28;19920;-68
2022/03/09 12:25:39;;;;;;;;;;;20.20;44.40;;;;;;5076762;28;19954;-65
2022/03/09 12:28:32;;;;;;;;;;;21.10;43.60;;;;;;5094898;28;20254;-65
2022/03/09 12:30:57;;;;;;;;;;;20.40;43.30;;;;;;5038752;28;19935;-66
2022/03/09 12:33:28;;;;;;;;;;;20.50;43.80;;;;;;5094581;28;20345;-65
2022/03/09 12:36:03;;;;;;;;;;;20.10;43.20;;;;;;5095511;28;19927;-66
2022/03/09 12:38:38;;;;;;;;;;;20.00;42.90;;;;;;5075489;28;19935;-66
2022/03/09 12:41:04;;;;;;;;;;;19.40;44.20;;;;;;5094199;28;19916;-66
2022/03/09 12:43:45;;;;;;;;;;;20.20;43.70;;;;;;5075693;28;19908;-67
2022/03/09 12:46:11;;;;;;;;;;;20.50;43.80;;;;;;5031919;28;19955;-68
2022/03/09 12:48:38;;;;;;;;;;;19.90;43.50;;;;;;5030869;28;19909;-65
2022/03/09 12:51:04;;;;;;;;;;;19.80;43.40;;;;;;5014968;28;19909;-65
2022/03/09 12:53:30;;;;;;;;;;;19.90;43.40;;;;;;5030813;28;20332;-66
2022/03/09 12:55:55;;;;;;;;;;;20.30;42.90;;;;;;5031638;28;19947;-66
2022/03/09 12:58:22;;;;;;;;;;;20.60;42.70;;;;;;5032059;28;19909;-65
2022/03/09 13:00:58;;;;;;;;;;;20.70;43.60;;;;;;5014602;28;20350;-68
2022/03/09 13:03:26;;;;;;;;;;;21.70;43.00;;;;;;5032196;28;20055;-66
2022/03/09 13:05:51;;;;;;;;;;;21.80;41.90;;;;;;5031903;28;20434;-66
2022/03/09 13:08:17;;;;;;;;;;;22.10;42.40;;;;;;5031935;28;19995;-67
2022/03/09 13:10:45;;;;;;;;;;;22.20;41.60;;;;;;5031089;28;20298;-65
2022/03/09 13:13:10;;;;;;;;;;;22.30;41.40;;;;;;5031715;28;19924;-68
2022/03/09 13:15:40;;;;;;;;;;;21.60;41.00;;;;;;5014224;28;19929;-66
2022/03/09 13:18:06;;;;;;;;;;;20.60;41.80;;;;;;5070338;28;20258;-66
2022/03/09 13:20:32;;;;;;;;;;;20.60;42.90;;;;;;5070668;28;19908;-68
2022/03/09 13:22:58;;;;;;;;;;;20.70;42.00;;;;;;5071702;28;19920;-66
2022/03/09 13:25:30;;;;;;;;;;;20.60;42.10;;;;;;5058325;28;20407;-67
2022/03/09 13:28:05;;;;;;;;;;;20.10;42.60;;;;;;5086482;28;19912;-66
2022/03/09 13:30:30;;;;;;;;;;;19.80;42.40;;;;;;5070735;28;19915;-67
2022/03/09 13:33:08;;;;;;;;;;;20.00;42.60;;;;;;5057200;28;20016;-67
2022/03/09 13:35:45;;;;;;;;;;;20.00;42.00;;;;;;5075142;28;19977;-67
2022/03/09 13:38:11;;;;;;;;;;;19.80;43.10;;;;;;5072181;28;19912;-68
2022/03/09 13:40:43;;;;;;;;;;;20.60;43.10;;;;;;5074493;28;19908;-66
2022/03/09 13:43:09;;;;;;;;;;;20.90;42.60;;;;;;5067347;28;20021;-67
2022/03/09 13:45:40;;;;;;;;;;;21.60;41.60;;;;;;5064098;28;19908;-65
2022/03/09 13:48:07;;;;;;;;;;;21.80;41.50;;;;;;5058249;28;19981;-66
2022/03/09 13:50:34;;;;;;;;;;;22.20;41.40;;;;;;5084579;28;19916;-68
2022/03/09 13:53:09;;;;;;;;;;;20.70;41.50;;;;;;5060340;28;19924;-65
2022/03/09 13:55:48;;;;;;;;;;;21.50;41.40;;;;;;5073037;28;19947;-66
2022/03/09 13:58:15;;;;;;;;;;;21.70;42.00;;;;;;5090631;28;19957;-64
2022/03/09 14:00:41;;;;;;;;;;;22.10;41.30;;;;;;5092323;28;19912;-66
2022/03/09 14:03:11;;;;;;;;;;;22.50;41.50;;;;;;5093791;28;19954;-65
2022/03/09 14:05:37;;;;;;;;;;;22.20;41.30;;;;;;5092691;28;19912;-65
2022/03/09 14:08:03;;;;;;;;;;;21.80;41.20;;;;;;5075243;28;19940;-66
2022/03/09 14:10:32;;;;;;;;;;;21.90;41.30;;;;;;5074192;28;19908;-74
2022/03/09 14:13:06;;;;;;;;;;;22.20;40.90;;;;;;5063659;28;19916;-66
2022/03/09 14:15:32;;;;;;;;;;;21.70;41.10;;;;;;5087371;28;19952;-68
2022/03/09 14:18:00;;;;;;;;;;;21.90;41.00;;;;;;5092175;28;19956;-67
2022/03/09 14:20:26;;;;;;;;;;;21.90;40.40;;;;;;5088008;28;19926;-67
2022/03/09 14:22:51;;;;;;;;;;;21.80;40.90;;;;;;5073632;28;19920;-65
2022/03/09 14:25:20;;;;;;;;;;;21.60;41.30;;;;;;5092614;28;20379;-65
2022/03/09 14:27:46;;;;;;;;;;;21.10;42.10;;;;;;5070057;28;19942;-66
2022/03/09 14:30:13;;;;;;;;;;;21.00;41.90;;;;;;5092822;28;19908;-64
2022/03/09 14:32:38;;;;;;;;;;;21.30;41.40;;;;;;5090827;28;20214;-66
2022/03/09 14:35:05;;;;;;;;;;;21.20;41.00;;;;;;5067383;28;20387;-65